Time;durP1;ratioP1;P1;durP2;ratioP2;P2;SDS_P1;SDS_P2;PMS_P1;PMS_P2;Temp;Humidity;BMP_temperature;BMP_pressure;BME280_temperature;BME280_humidity;BME280_pressure;Samples;Min_cycle;Max_cycle;Signal;HPM_P1;HPM_P2
2022/04/02 00:01:41;;;;;;;31.90;8.70;;;;;;;11.34;100.00;99185.77;1691613;84;21712;-84
2022/04/02 00:04:09;;;;;;;37.58;8.48;;;;;;;11.31;100.00;99169.16;1691529;84;21067;-79
2022/04/02 00:06:38;;;;;;;30.62;7.33;;;;;;;11.32;100.00;99179.92;1629882;88;21056;-78
2022/04/02 00:09:07;;;;;;;32.35;7.87;;;;;;;11.32;100.00;99174.70;1691544;84;21672;-77
2022/04/02 00:11:36;;;;;;;36.05;8.28;;;;;;;11.31;100.00;99165.25;1691173;84;21090;-78
2022/04/02 00:14:04;;;;;;;44.13;9.65;;;;;;;11.32;100.00;99161.67;1691065;84;21039;-78
2022/04/02 00:16:31;;;;;;;38.78;8.20;;;;;;;11.34;100.00;99166.72;1690690;84;21055;-79
2022/04/02 00:19:00;;;;;;;36.90;8.90;;;;;;;11.35;100.00;99161.34;1691314;84;21004;-78
2022/04/02 00:21:28;;;;;;;35.38;7.97;;;;;;;11.37;100.00;99166.42;1691053;84;21340;-78
2022/04/02 00:23:57;;;;;;;23.27;6.92;;;;;;;11.38;100.00;99162.02;1691257;84;21530;-79
2022/04/02 00:26:25;;;;;;;23.42;7.95;;;;;;;11.38;100.00;99153.70;1691187;84;21082;-79
2022/04/02 00:28:52;;;;;;;30.43;7.08;;;;;;;11.38;100.00;99158.10;1690831;84;21023;-78
2022/04/02 00:31:21;;;;;;;21.37;6.60;;;;;;;11.39;100.00;99151.42;1690943;84;21087;-77
2022/04/02 00:33:50;;;;;;;35.80;7.92;;;;;;;11.42;100.00;99154.20;1691384;84;21221;-77
2022/04/02 00:36:24;;;;;;;30.72;7.97;;;;;;;11.45;100.00;99148.69;1691001;84;21095;-87
2022/04/02 00:38:51;;;;;;;41.60;8.98;;;;;;;11.47;100.00;99145.44;1690940;84;21525;-79
2022/04/02 00:41:18;;;;;;;35.95;8.83;;;;;;;11.50;100.00;99142.50;1692103;84;21063;-79
2022/04/02 00:44:13;;;;;;;32.93;7.97;;;;;;;11.50;100.00;99139.89;1691264;84;21083;-77
2022/04/02 00:46:42;;;;;;;36.70;8.18;;;;;;;11.49;100.00;99136.48;1691256;84;21961;-77
2022/04/02 00:49:14;;;;;;;36.25;7.72;;;;;;;11.51;100.00;99137.16;1691419;84;21581;-78
2022/04/02 00:51:43;;;;;;;25.12;8.08;;;;;;;11.52;100.00;99134.05;1663616;84;21095;-85
2022/04/02 00:54:14;;;;;;;30.05;8.00;;;;;;;11.48;100.00;99134.84;1691072;84;21131;-79
2022/04/02 00:56:43;;;;;;;29.20;8.05;;;;;;;11.44;100.00;99136.62;1691402;84;21609;-78
2022/04/02 00:59:15;;;;;;;39.13;8.80;;;;;;;11.36;100.00;99135.62;1691198;84;21181;-79
2022/04/02 01:01:45;;;;;;;40.15;9.60;;;;;;;11.32;100.00;99133.02;1691421;84;20993;-77
2022/04/02 01:04:14;;;;;;;34.15;8.95;;;;;;;11.29;100.00;99133.31;1691490;84;21458;-78
2022/04/02 01:06:46;;;;;;;33.07;8.63;;;;;;;11.18;100.00;99127.89;1684473;84;21110;-85
2022/04/02 01:09:16;;;;;;;45.00;9.20;;;;;;;11.18;100.00;99127.89;1664254;84;21020;-77
2022/04/02 01:11:48;;;;;;;39.63;9.43;;;;;;;11.18;100.00;99124.45;1691306;84;21908;-78
2022/04/02 01:14:16;;;;;;;39.48;9.90;;;;;;;11.17;100.00;99120.24;1663709;84;21071;-78
2022/04/02 01:16:45;;;;;;;30.65;9.35;;;;;;;11.15;100.00;99127.39;1690901;84;21060;-80
2022/04/02 01:19:20;;;;;;;32.00;8.80;;;;;;;11.11;100.00;99122.14;1689882;84;21141;-87
2022/04/02 01:21:49;;;;;;;42.13;9.18;;;;;;;11.02;100.00;99122.59;1691602;84;21648;-78
2022/04/02 01:24:20;;;;;;;32.20;8.18;;;;;;;10.94;100.00;99124.66;1680718;84;21611;-79
2022/04/02 01:26:49;;;;;;;29.25;8.38;;;;;;;10.87;100.00;99125.78;1691211;84;21040;-77
2022/04/02 01:29:18;;;;;;;40.52;9.88;;;;;;;10.81;100.00;99122.96;1687631;84;21596;-77
2022/04/02 01:31:48;;;;;;;42.13;10.68;;;;;;;10.76;100.00;99119.52;1687315;84;21525;-79
2022/04/02 01:34:22;;;;;;;36.60;9.65;;;;;;;10.71;100.00;99121.27;1687067;84;21108;-79
2022/04/02 01:36:51;;;;;;;35.00;8.93;;;;;;;10.66;100.00;99110.52;1688881;84;21665;-79
2022/04/02 01:39:26;;;;;;;30.62;9.03;;;;;;;10.64;100.00;99109.84;1686962;84;21103;-78
2022/04/02 01:41:53;;;;;;;38.23;7.87;;;;;;;10.63;100.00;99101.69;1690808;84;21565;-80
2022/04/02 01:44:22;;;;;;;37.50;9.13;;;;;;;10.63;100.00;99101.69;1687424;84;21536;-78
2022/04/02 01:46:49;;;;;;;40.25;8.48;;;;;;;10.65;100.00;99109.37;1693487;84;21903;-81
2022/04/02 01:49:19;;;;;;;35.33;8.55;;;;;;;10.64;100.00;99107.73;1693370;84;21130;-77
2022/04/02 01:51:47;;;;;;;28.85;7.40;;;;;;;10.62;100.00;99103.16;1690803;84;21349;-79
2022/04/02 01:54:17;;;;;;;29.87;7.53;;;;;;;10.58;100.00;99103.45;1687028;84;21501;-78
2022/04/02 01:56:45;;;;;;;31.97;8.05;;;;;;;10.53;100.00;99104.41;1686680;84;21086;-78
2022/04/02 01:59:15;;;;;;;38.73;8.30;;;;;;;10.49;100.00;99097.88;1689014;83;21141;-79
2022/04/02 02:01:42;;;;;;;31.60;8.23;;;;;;;10.47;100.00;99095.08;1690892;84;21211;-81
2022/04/02 02:04:11;;;;;;;35.40;8.60;;;;;;;10.43;100.00;99093.76;1690707;84;21116;-79
2022/04/02 02:06:39;;;;;;;31.42;8.78;;;;;;;10.39;100.00;99091.45;1690773;84;21076;-79
2022/04/02 02:09:08;;;;;;;24.43;7.62;;;;;;;10.33;100.00;99095.13;1691451;84;21137;-77
2022/04/02 02:11:47;;;;;;;31.77;8.60;;;;;;;10.28;100.00;99086.94;1623318;84;21062;-81
2022/04/02 02:14:14;;;;;;;34.63;8.85;;;;;;;10.26;100.00;99085.30;1691134;84;21156;-79
2022/04/02 02:16:43;;;;;;;32.30;9.03;;;;;;;10.28;100.00;99081.73;1686527;84;21050;-77
2022/04/02 02:19:11;;;;;;;37.28;9.23;;;;;;;10.26;100.00;99085.80;1690950;84;21065;-86
2022/04/02 02:21:42;;;;;;;29.05;8.78;;;;;;;10.24;100.00;99071.65;1664139;84;21093;-82
2022/04/02 02:24:14;;;;;;;28.45;8.88;;;;;;;10.19;100.00;99076.97;1686709;84;21089;-80
2022/04/02 02:26:41;;;;;;;33.13;8.83;;;;;;;10.14;100.00;99071.37;1690981;84;22420;-78
2022/04/02 02:29:09;;;;;;;30.43;7.72;;;;;;;10.06;100.00;99067.74;1690962;84;21556;-79
2022/04/02 02:31:38;;;;;;;31.48;8.28;;;;;;;10.04;100.00;99068.41;1690378;83;21048;-77
2022/04/02 02:37:00;;;;;;;41.75;8.05;;;;;;;10.05;100.00;99062.70;1686984;84;21006;-80
2022/04/02 02:39:27;;;;;;;30.10;7.17;;;;;;;10.06;100.00;99046.94;1690050;83;21218;-78
2022/04/02 02:42:06;;;;;;;33.25;7.78;;;;;;;10.05;100.00;99058.33;1686321;84;21538;-77
2022/04/02 02:44:37;;;;;;;28.70;7.28;;;;;;;10.00;100.00;99056.65;1660935;84;20980;-79
2022/04/02 02:47:09;;;;;;;31.70;7.40;;;;;;;9.96;100.00;99055.33;1687006;84;21028;-78
2022/04/02 02:49:39;;;;;;;34.33;7.97;;;;;;;9.94;100.00;99055.95;1690760;84;21281;-87
2022/04/02 02:52:08;;;;;;;27.82;7.67;;;;;;;9.92;100.00;99061.78;1663812;84;22569;-78
2022/04/02 02:54:35;;;;;;;39.50;7.37;;;;;;;9.91;100.00;99064.04;1691134;84;21047;-78
2022/04/02 02:57:04;;;;;;;32.42;7.72;;;;;;;9.89;100.00;99062.09;1691472;84;21036;-77
2022/04/02 02:59:32;;;;;;;31.45;7.33;;;;;;;9.84;100.00;99060.41;1663684;84;21052;-78
2022/04/02 03:01:59;;;;;;;24.32;7.33;;;;;;;9.79;100.00;99068.18;1690841;84;21552;-79
2022/04/02 03:04:26;;;;;;;35.03;7.97;;;;;;;9.79;100.00;99068.64;1690688;84;21242;-78
2022/04/02 03:06:55;;;;;;;28.52;7.08;;;;;;;9.81;100.00;99072.41;1686996;84;21636;-80
2022/04/02 03:09:30;;;;;;;34.58;7.30;;;;;;;9.81;100.00;99073.22;1686960;84;21090;-79
2022/04/02 03:12:00;;;;;;;36.13;8.95;;;;;;;9.83;100.00;99066.09;1691468;84;21099;-77
2022/04/02 03:14:28;;;;;;;41.13;8.08;;;;;;;9.84;100.00;99072.94;1691630;84;21063;-77
2022/04/02 03:16:55;;;;;;;33.92;8.03;;;;;;;9.84;100.00;99066.91;1691377;84;21170;-78
2022/04/02 03:19:24;;;;;;;25.30;7.97;;;;;;;9.84;100.00;99066.91;1691386;84;21103;-88
2022/04/02 03:21:57;;;;;;;34.83;8.50;;;;;;;9.78;100.00;99052.24;1675931;84;21017;-80
2022/04/02 03:24:24;;;;;;;37.38;8.73;;;;;;;9.67;100.00;99042.05;1691203;84;21126;-79
2022/04/02 03:26:54;;;;;;;35.50;8.45;;;;;;;9.60;100.00;99047.51;1691295;84;21589;-78
2022/04/02 03:29:23;;;;;;;32.78;7.22;;;;;;;9.61;100.00;99043.95;1686754;84;21163;-80
2022/04/02 03:31:51;;;;;;;32.50;8.40;;;;;;;9.65;100.00;99035.38;1691601;84;21605;-80
2022/04/02 03:34:18;;;;;;;34.58;7.75;;;;;;;9.65;100.00;99032.31;1691552;84;21063;-79
2022/04/02 03:36:47;;;;;;;30.40;8.40;;;;;;;9.68;100.00;99028.09;1687111;84;21605;-80
2022/04/02 03:39:15;;;;;;;35.23;8.53;;;;;;;9.73;100.00;99018.55;1691544;84;21099;-80
2022/04/02 03:41:42;;;;;;;29.98;7.22;;;;;;;9.84;100.00;99002.74;1691612;84;21148;-80
2022/04/02 03:44:09;;;;;;;27.87;7.58;;;;;;;9.97;100.00;98994.56;1691482;84;21032;-80
2022/04/02 03:49:26;;;;;;;32.25;7.83;;;;;;;10.13;100.00;99012.05;1664665;84;21040;-79
2022/04/02 03:51:53;;;;;;;34.50;7.45;;;;;;;10.17;100.00;98993.05;1691515;84;21075;-79
2022/04/02 03:54:21;;;;;;;31.42;7.65;;;;;;;10.18;100.00;98998.09;1691598;84;21308;-80
2022/04/02 03:56:51;;;;;;;36.77;7.17;;;;;;;10.20;100.00;98990.16;1687005;84;21078;-86
2022/04/02 03:59:19;;;;;;;33.75;7.50;;;;;;;10.23;100.00;99001.08;1691382;84;21106;-81
2022/04/02 04:01:48;;;;;;;33.50;8.13;;;;;;;10.27;100.00;98997.69;1687202;84;21052;-77
2022/04/02 04:04:15;;;;;;;32.98;7.45;;;;;;;10.31;100.00;99006.00;1691789;84;21111;-76
2022/04/02 04:06:43;;;;;;;26.70;6.42;;;;;;;10.37;100.00;99010.61;1684969;84;21155;-78
2022/04/02 04:09:13;;;;;;;32.58;7.60;;;;;;;10.41;100.00;99009.35;1662729;84;21094;-77
2022/04/02 04:11:44;;;;;;;34.20;7.62;;;;;;;10.44;100.00;99010.33;1660084;86;21090;-80
2022/04/02 04:14:12;;;;;;;33.13;7.97;;;;;;;10.49;100.00;99005.97;1663467;84;21014;-78
2022/04/02 04:16:43;;;;;;;32.40;7.08;;;;;;;10.51;100.00;98999.62;1663544;86;22416;-79
2022/04/02 04:19:11;;;;;;;30.95;7.17;;;;;;;10.55;100.00;99000.97;1674033;84;21158;-81
2022/04/02 04:21:38;;;;;;;28.70;7.30;;;;;;;10.59;100.00;98998.87;1691442;84;21082;-79
2022/04/02 04:24:06;;;;;;;30.02;8.33;;;;;;;10.65;100.00;98993.03;1663911;84;20976;-79
2022/04/02 04:26:34;;;;;;;29.95;6.78;;;;;;;10.76;100.00;98993.73;1691425;84;21083;-77
2022/04/02 04:29:02;;;;;;;27.42;7.15;;;;;;;10.85;100.00;98991.51;1691613;84;21154;-77
2022/04/02 04:31:29;;;;;;;29.52;6.35;;;;;;;10.94;100.00;98989.23;1691348;84;21307;-84
2022/04/02 04:33:57;;;;;;;36.95;8.78;;;;;;;11.01;100.00;98995.47;1690716;84;21035;-83
2022/04/02 04:36:27;;;;;;;31.52;7.47;;;;;;;11.11;100.00;98995.80;1690849;84;21158;-79
2022/04/02 04:38:56;;;;;;;35.45;8.90;;;;;;;11.16;100.00;98996.16;1691424;84;21091;-79
2022/04/02 04:41:24;;;;;;;33.50;7.58;;;;;;;11.21;100.00;98992.58;1691031;84;21127;-77
2022/04/02 04:43:54;;;;;;;30.02;7.10;;;;;;;11.23;100.00;99007.58;1687406;84;21171;-77
2022/04/02 04:46:23;;;;;;;27.25;7.30;;;;;;;11.25;100.00;99003.03;1686919;84;21514;-77
2022/04/02 04:48:52;;;;;;;30.25;8.10;;;;;;;11.29;100.00;99008.23;1686694;84;21055;-79
2022/04/02 04:51:23;;;;;;;40.55;8.65;;;;;;;11.32;100.00;98999.28;1630913;86;21622;-79
2022/04/02 04:53:52;;;;;;;33.13;8.58;;;;;;;11.36;100.00;98998.80;1654859;86;21077;-79
2022/04/02 04:56:21;;;;;;;30.52;7.03;;;;;;;11.41;100.00;98996.22;1635022;85;21276;-83
2022/04/02 04:58:49;;;;;;;38.45;7.58;;;;;;;11.44;100.00;98995.87;1637025;86;21115;-80
2022/04/02 05:01:17;;;;;;;34.40;8.75;;;;;;;11.48;100.00;98986.78;1648626;86;21242;-80
2022/04/02 05:03:44;;;;;;;34.53;8.58;;;;;;;11.56;100.00;98997.22;1646448;86;21142;-80
2022/04/02 05:06:15;;;;;;;35.52;8.18;;;;;;;11.66;100.00;99004.38;1646252;86;21521;-80
2022/04/02 05:08:45;;;;;;;29.07;8.45;;;;;;;11.82;100.00;99001.45;1649480;86;21328;-79
2022/04/02 05:11:13;;;;;;;40.58;9.20;;;;;;;11.96;100.00;98989.55;1652903;86;21078;-80
2022/04/02 05:13:43;;;;;;;35.92;7.55;;;;;;;12.10;100.00;98981.59;1664045;84;21533;-79
2022/04/02 05:16:12;;;;;;;43.38;8.63;;;;;;;12.21;100.00;98977.81;1628242;86;21035;-79
2022/04/02 05:18:43;;;;;;;31.45;8.03;;;;;;;12.27;100.00;98971.92;1631262;86;21125;-79
2022/04/02 05:21:11;;;;;;;30.48;7.37;;;;;;;12.33;100.00;98969.97;1689896;84;21285;-85
2022/04/02 05:23:41;;;;;;;43.50;8.63;;;;;;;12.35;100.00;98971.91;1690563;84;21040;-80
2022/04/02 05:26:09;;;;;;;33.67;7.87;;;;;;;12.38;100.00;98968.97;1691478;84;21764;-80
2022/04/02 05:28:37;;;;;;;27.22;7.40;;;;;;;12.42;100.00;98966.33;1685314;84;21097;-78
2022/04/02 05:31:04;;;;;;;29.12;8.18;;;;;;;12.47;100.00;98964.53;1689100;84;21652;-76
2022/04/02 05:33:34;;;;;;;39.55;15.93;;;;;;;12.55;100.00;98973.64;1689199;84;21051;-79
2022/04/02 05:36:01;;;;;;;39.33;9.25;;;;;;;12.62;100.00;98977.20;1694183;83;21111;-78
2022/04/02 05:38:30;;;;;;;58.87;9.00;;;;;;;12.71;100.00;98975.87;1690174;84;21086;-79
2022/04/02 05:40:58;;;;;;;58.40;8.55;;;;;;;12.90;100.00;98982.48;1686154;83;21527;-79
2022/04/02 05:43:26;;;;;;;33.30;7.87;;;;;;;13.12;100.00;98978.29;1687631;84;21564;-80
2022/04/02 05:45:54;;;;;;;44.73;9.10;;;;;;;13.25;100.00;98977.25;1656745;86;21564;-78
2022/04/02 05:48:21;;;;;;;36.63;7.37;;;;;;;13.37;100.00;98979.45;1649232;86;21163;-78
2022/04/02 05:50:50;;;;;;;40.48;8.60;;;;;;;13.44;100.00;98986.16;1657683;85;21596;-79
2022/04/02 05:53:18;;;;;;;41.77;8.65;;;;;;;13.43;100.00;98981.40;1677734;84;21152;-81
2022/04/02 05:55:48;;;;;;;32.42;7.60;;;;;;;13.39;100.00;98977.52;1678168;84;21062;-81
2022/04/02 05:58:16;;;;;;;38.25;8.25;;;;;;;13.35;100.00;98969.66;1678051;84;21169;-78
2022/04/02 06:00:46;;;;;;;33.90;8.30;;;;;;;13.34;100.00;98967.55;1688420;83;21040;-84
2022/04/02 06:03:16;;;;;;;40.98;8.83;;;;;;;13.37;100.00;98967.22;1686212;84;21040;-79
2022/04/02 06:05:44;;;;;;;37.48;9.00;;;;;;;13.41;100.00;98962.48;1693388;84;21081;-79
2022/04/02 06:08:14;;;;;;;38.42;8.20;;;;;;;13.49;100.00;98964.20;1690330;84;21122;-79
2022/04/02 06:10:44;;;;;;;36.23;8.33;;;;;;;13.50;100.00;98967.14;1643118;84;21766;-80
2022/04/02 06:13:14;;;;;;;46.68;9.15;;;;;;;13.48;100.00;98971.25;1688414;84;21083;-80
2022/04/02 06:15:42;;;;;;;42.73;8.13;;;;;;;13.49;100.00;98963.73;1672363;83;21034;-79
2022/04/02 06:18:09;;;;;;;32.98;8.20;;;;;;;13.55;100.00;98964.81;1681287;83;21097;-77
2022/04/02 06:20:36;;;;;;;47.50;24.77;;;;;;;13.64;100.00;98969.50;1687208;84;21667;-81
2022/04/02 06:23:03;;;;;;;33.63;11.43;;;;;;;13.71;100.00;98965.98;1691225;84;21670;-82
2022/04/02 06:25:31;;;;;;;83.75;12.65;;;;;;;13.85;100.00;98968.33;1672809;84;21137;-83
2022/04/02 06:27:59;;;;;;;81.10;11.12;;;;;;;13.99;100.00;98969.36;1692787;84;21351;-81
2022/04/02 06:30:26;;;;;;;58.73;9.15;;;;;;;14.14;100.00;98970.67;1688986;84;21059;-81
2022/04/02 06:32:56;;;;;;;35.68;7.75;;;;;;;14.23;100.00;98962.27;1685468;84;21682;-82
2022/04/02 06:35:25;;;;;;;51.47;8.63;;;;;;;14.31;100.00;98954.80;1689085;84;21260;-87
2022/04/02 06:37:54;;;;;;;87.88;10.25;;;;;;;14.44;100.00;98956.31;1693237;84;22209;-82
2022/04/02 06:40:24;;;;;;;55.40;8.75;;;;;;;14.57;100.00;98955.67;1687466;84;21197;-81
2022/04/02 06:42:52;;;;;;;37.85;9.08;;;;;;;14.72;100.00;98947.81;1692940;83;21583;-81
2022/04/02 06:45:27;;;;;;;45.40;8.00;;;;;;;14.81;100.00;98942.79;1667016;84;21565;-82
2022/04/02 06:47:54;;;;;;;36.90;8.35;;;;;;;14.86;100.00;98959.27;1678817;85;21254;-82
2022/04/02 06:50:24;;;;;;;36.68;8.10;;;;;;;14.90;100.00;98951.34;1690973;84;20959;-81
2022/04/02 06:52:51;;;;;;;47.38;8.55;;;;;;;15.01;100.00;98951.87;1682238;84;21047;-83
2022/04/02 06:55:18;;;;;;;35.80;8.28;;;;;;;15.15;100.00;98954.94;1631070;87;21073;-82
2022/04/02 06:57:53;;;;;;;39.15;7.67;;;;;;;15.33;100.00;98963.72;1685669;84;21154;-82
2022/04/02 07:00:21;;;;;;;30.05;7.90;;;;;;;15.53;100.00;98960.45;1691138;84;21180;-82
2022/04/02 07:02:48;;;;;;;37.58;13.35;;;;;;;15.74;100.00;98960.94;1691740;84;21671;-84
2022/04/02 07:05:16;;;;;;;36.90;13.32;;;;;;;15.97;100.00;98959.44;1664011;84;21044;-82
2022/04/02 07:07:45;;;;;;;62.48;24.90;;;;;;;16.17;100.00;98956.13;1663340;84;21086;-81
2022/04/02 07:10:13;;;;;;;28.75;9.90;;;;;;;16.38;100.00;98936.86;1691062;84;21641;-83
2022/04/02 07:12:41;;;;;;;32.90;7.08;;;;;;;16.56;100.00;98942.90;1657651;86;21137;-83
2022/04/02 07:15:10;;;;;;;50.63;8.83;;;;;;;16.71;100.00;98943.56;1630929;86;21058;-82
2022/04/02 07:17:37;;;;;;;25.00;7.00;;;;;;;16.87;100.00;98929.28;1631255;86;21069;-84
2022/04/02 07:20:08;;;;;;;28.27;6.80;;;;;;;17.07;100.00;98940.89;1691043;84;20976;-83
2022/04/02 07:22:38;;;;;;;31.20;7.05;;;;;;;17.23;100.00;98944.95;1632047;86;22067;-84
2022/04/02 07:25:06;;;;;;;30.68;7.22;;;;;;;17.38;100.00;98940.35;1691173;84;21305;-89
2022/04/02 07:27:38;;;;;;;33.95;7.28;;;;;;;17.55;100.00;98943.39;1657245;86;21113;-83
2022/04/02 07:30:24;;;;;;;28.47;6.55;;;;;;;17.76;100.00;98936.30;1652840;79;20991;-83
2022/04/02 07:32:55;;;;;;;35.65;7.87;;;;;;;17.93;100.00;98941.97;1614044;87;21109;-87
2022/04/02 07:35:26;;;;;;;28.92;6.20;;;;;;;18.14;100.00;98934.37;1614746;88;21100;-83
2022/04/02 07:38:23;;;;;;;29.98;6.53;;;;;;;18.32;100.00;98924.49;1588243;88;21172;-83
2022/04/02 07:41:26;;;;;;;21.17;5.50;;;;;;;18.48;100.00;98924.53;1602422;88;21577;-82
2022/04/02 07:44:10;;;;;;;21.37;5.28;;;;;;;18.64;98.76;98920.63;1585483;88;21037;-77
2022/04/02 07:46:42;;;;;;;26.60;5.58;;;;;;;18.74;92.33;98916.22;1601396;88;21160;-79
2022/04/02 07:49:12;;;;;;;21.90;5.40;;;;;;;18.83;90.85;98917.59;1615114;88;21097;-78
2022/04/02 07:51:43;;;;;;;18.40;5.12;;;;;;;18.89;85.19;98918.06;1614690;88;21168;-87
2022/04/02 07:54:13;;;;;;;34.23;6.40;;;;;;;18.99;84.68;98922.11;1614866;88;21121;-78
2022/04/02 07:56:48;;;;;;;26.50;5.20;;;;;;;19.07;82.72;98913.94;1610656;88;21555;-78
2022/04/02 07:59:27;;;;;;;20.72;5.28;;;;;;;19.18;79.39;98915.91;1611332;88;21039;-78
2022/04/02 08:01:57;;;;;;;26.57;5.80;;;;;;;19.30;76.46;98916.53;1569755;90;21131;-78
2022/04/02 08:04:26;;;;;;;14.00;4.58;;;;;;;19.44;77.39;98914.08;1614089;86;21571;-78
2022/04/02 08:06:53;;;;;;;20.40;4.28;;;;;;;19.51;71.56;98902.95;1611424;86;21052;-76
2022/04/02 08:09:25;;;;;;;15.40;4.08;;;;;;;19.59;69.82;98902.42;1606581;89;21064;-77
2022/04/02 08:11:53;;;;;;;16.35;4.65;;;;;;;19.70;70.10;98893.77;1617648;87;21060;-80
2022/04/02 08:14:23;;;;;;;13.98;4.70;;;;;;;19.79;66.93;98894.31;1608741;89;21640;-80
2022/04/02 08:16:52;;;;;;;24.57;4.83;;;;;;;19.91;69.05;98883.88;1617181;87;21173;-79
2022/04/02 08:19:23;;;;;;;16.17;4.20;;;;;;;20.05;63.82;98889.80;1621101;86;21145;-81
2022/04/02 08:21:50;;;;;;;10.05;3.70;;;;;;;20.11;63.47;98884.45;1656174;86;21829;-87
2022/04/02 08:24:18;;;;;;;11.63;4.05;;;;;;;20.16;61.66;98883.27;1656345;86;21121;-81
2022/04/02 08:27:06;;;;;;;17.82;4.28;;;;;;;20.22;62.23;98897.97;1637475;86;21132;-81
2022/04/02 08:29:58;;;;;;;10.13;3.08;;;;;;;20.31;61.01;98886.88;1656184;86;21155;-78
2022/04/02 08:33:05;;;;;;;10.03;3.80;;;;;;;20.40;58.25;98872.03;1645966;85;21045;-79
2022/04/02 08:36:21;;;;;;;14.68;3.80;;;;;;;20.47;60.11;98877.52;1656014;86;21077;-78
2022/04/02 08:39:17;;;;;;;12.60;3.22;;;;;;;20.60;60.85;98867.81;1629323;86;21077;-79
2022/04/02 08:42:38;;;;;;;11.88;3.30;;;;;;;20.75;58.67;98865.61;1605893;86;21165;-80
2022/04/02 08:45:09;;;;;;;8.95;3.58;;;;;;;20.85;56.75;98867.70;1615247;86;21290;-78
2022/04/02 08:48:20;;;;;;;12.98;3.50;;;;;;;20.86;54.39;98865.34;1655231;86;21503;-79
2022/04/02 08:50:54;;;;;;;10.85;3.35;;;;;;;20.79;54.22;98864.11;1655530;86;21089;-78
2022/04/02 08:53:49;;;;;;;8.48;2.80;;;;;;;20.60;55.18;98871.78;1626643;86;21097;-79
2022/04/02 08:56:25;;;;;;;9.20;2.80;;;;;;;20.46;54.43;98871.97;1639690;85;21562;-80
2022/04/02 08:59:05;;;;;;;12.65;2.90;;;;;;;20.35;55.67;98863.45;1653737;86;21972;-84
2022/04/02 09:02:17;;;;;;;10.63;2.42;;;;;;;20.32;55.21;98859.92;1655696;86;21603;-81
2022/04/02 09:05:01;;;;;;;10.10;2.95;;;;;;;20.36;55.81;98861.10;1647588;86;21089;-78
2022/04/02 09:08:14;;;;;;;12.85;2.80;;;;;;;20.37;54.75;98857.44;1651860;86;21049;-88
2022/04/02 09:11:17;;;;;;;12.17;3.00;;;;;;;20.39;55.32;98852.71;1656270;86;21100;-79
2022/04/02 09:14:30;;;;;;;15.38;3.87;;;;;;;20.53;55.37;98851.23;1651086;86;21155;-81
2022/04/02 09:17:15;;;;;;;10.95;2.70;;;;;;;20.70;55.20;98832.39;1655452;86;21114;-79
2022/04/02 09:20:10;;;;;;;17.07;3.92;;;;;;;20.90;52.89;98833.95;1652274;86;21093;-84
2022/04/02 09:23:11;;;;;;;9.33;3.08;;;;;;;21.03;54.18;98842.21;1656072;86;21155;-79
2022/04/02 09:25:53;;;;;;;12.95;2.65;;;;;;;21.17;51.38;98838.84;1655875;86;21061;-79
2022/04/02 09:29:17;;;;;;;18.32;3.35;;;;;;;21.33;51.07;98832.88;1655530;86;21204;-79
2022/04/02 09:32:19;;;;;;;10.03;3.35;;;;;;;21.50;52.29;98837.49;1638992;86;21065;-79
2022/04/02 09:35:15;;;;;;;11.93;4.28;;;;;;;21.69;50.61;98846.14;1617949;87;21039;-77
2022/04/02 09:38:34;;;;;;;14.50;3.22;;;;;;;21.78;51.02;98854.03;1618122;86;21666;-79
2022/04/02 09:41:18;;;;;;;16.23;2.90;;;;;;;21.90;49.83;98845.53;1618441;86;21397;-78
2022/04/02 09:44:18;;;;;;;14.35;3.35;;;;;;;22.12;48.72;98846.77;1622508;86;21179;-79
2022/04/02 09:47:25;;;;;;;17.67;3.15;;;;;;;22.26;48.26;98852.08;1565128;88;21562;-79
2022/04/02 09:50:10;;;;;;;12.98;3.95;;;;;;;22.34;47.74;98853.56;1587947;90;21047;-79
2022/04/02 09:52:47;;;;;;;11.73;3.83;;;;;;;22.30;46.53;98838.66;1589287;90;21517;-81
2022/04/02 09:55:23;;;;;;;17.15;3.83;;;;;;;22.21;46.83;98848.80;1618049;88;21354;-89
2022/04/02 09:58:23;;;;;;;11.05;3.20;;;;;;;22.17;48.11;98858.78;1615774;88;21286;-82
2022/04/02 10:01:22;;;;;;;10.35;3.83;;;;;;;22.09;47.59;98869.75;1618235;87;21074;-87
2022/04/02 10:04:00;;;;;;;14.40;3.45;;;;;;;21.82;47.75;98870.27;1617219;88;21075;-80
2022/04/02 10:06:42;;;;;;;25.32;3.98;;;;;;;21.64;49.98;98868.52;1628597;86;21101;-81
2022/04/02 10:09:11;;;;;;;13.90;3.65;;;;;;;21.51;50.31;98872.20;1637857;87;20985;-78
2022/04/02 10:11:55;;;;;;;15.53;3.42;;;;;;;21.34;50.14;98872.87;1647216;87;21724;-79
2022/04/02 10:14:26;;;;;;;24.63;3.70;;;;;;;21.23;51.35;98875.77;1661346;85;21063;-78
2022/04/02 10:17:04;;;;;;;18.32;4.10;;;;;;;21.26;51.23;98877.98;1670118;85;21066;-78
2022/04/02 10:19:41;;;;;;;17.30;4.30;;;;;;;21.40;51.24;98872.45;1677120;85;21059;-79
2022/04/02 10:22:12;;;;;;;18.55;4.45;;;;;;;21.51;50.93;98869.55;1670035;85;21091;-78
2022/04/02 10:24:50;;;;;;;27.35;4.95;;;;;;;21.52;50.56;98852.61;1676828;85;21163;-83
2022/04/02 10:27:34;;;;;;;17.90;4.90;;;;;;;21.44;50.40;98850.59;1670069;85;21126;-81
2022/04/02 10:30:13;;;;;;;17.80;4.50;;;;;;;21.37;51.05;98844.61;1672332;85;21086;-79
2022/04/02 10:32:55;;;;;;;25.15;6.20;;;;;;;21.25;51.12;98857.04;1632174;85;21077;-86
2022/04/02 10:35:28;;;;;;;21.82;5.55;;;;;;;21.09;51.58;98843.44;1671521;85;21011;-79
2022/04/02 10:38:06;;;;;;;20.40;5.62;;;;;;;20.97;52.55;98851.86;1655247;85;21170;-79
2022/04/02 10:40:46;;;;;;;24.15;5.65;;;;;;;20.88;53.55;98843.95;1676905;85;21082;-82
2022/04/02 10:43:27;;;;;;;18.30;5.47;;;;;;;20.94;54.32;98836.45;1654166;85;21075;-79
2022/04/02 10:45:56;;;;;;;21.95;5.28;;;;;;;21.17;54.57;98821.11;1662277;85;20990;-77
2022/04/02 10:48:51;;;;;;;21.70;5.65;;;;;;;21.39;53.66;98808.12;1658898;86;21105;-80
2022/04/02 10:51:24;;;;;;;21.57;5.28;;;;;;;21.49;51.75;98798.28;1658282;86;21348;-80
2022/04/02 10:54:08;;;;;;;19.07;5.20;;;;;;;21.57;51.56;98800.60;1658749;86;21125;-80
2022/04/02 10:56:42;;;;;;;17.32;4.70;;;;;;;21.67;50.40;98764.25;1658125;86;21371;-79
2022/04/02 10:59:13;;;;;;;17.90;4.50;;;;;;;21.79;49.90;98780.66;1658617;86;21029;-79
2022/04/02 11:01:46;;;;;;;17.05;4.75;;;;;;;21.89;48.25;98759.67;1625174;86;21157;-79
2022/04/02 11:04:37;;;;;;;17.57;4.70;;;;;;;21.96;47.63;98743.13;1619794;88;21793;-80
2022/04/02 11:07:06;;;;;;;15.08;4.55;;;;;;;22.03;47.52;98749.08;1616756;88;21567;-79
2022/04/02 11:09:40;;;;;;;19.12;4.83;;;;;;;22.11;48.08;98746.59;1619883;88;21070;-79
2022/04/02 11:12:15;;;;;;;18.23;4.50;;;;;;;22.23;46.54;98733.28;1620427;87;21031;-80
2022/04/02 11:14:52;;;;;;;20.08;4.55;;;;;;;22.27;46.68;98737.05;1619842;88;21663;-80
2022/04/02 11:17:37;;;;;;;19.05;4.78;;;;;;;22.32;46.04;98738.45;1609027;88;21845;-80
2022/04/02 11:20:16;;;;;;;19.10;4.78;;;;;;;22.39;46.68;98726.42;1620019;87;21100;-80
2022/04/02 11:23:01;;;;;;;27.40;5.53;;;;;;;22.43;45.31;98710.33;1621432;86;21984;-87
2022/04/02 11:25:35;;;;;;;14.03;4.35;;;;;;;22.39;46.17;98715.81;1631772;85;21053;-79
2022/04/02 11:28:17;;;;;;;26.75;4.75;;;;;;;22.35;46.18;98722.63;1658469;86;21113;-80
2022/04/02 11:30:55;;;;;;;17.25;4.30;;;;;;;22.20;45.46;98714.66;1654767;86;21850;-81
2022/04/02 11:33:26;;;;;;;15.65;4.58;;;;;;;22.06;46.43;98689.50;1646199;85;21127;-80
2022/04/02 11:36:02;;;;;;;18.25;4.37;;;;;;;21.96;45.56;98717.95;1658447;86;21069;-79
2022/04/02 11:38:39;;;;;;;23.27;4.67;;;;;;;21.84;45.78;98703.92;1658186;86;21622;-79
2022/04/02 11:41:23;;;;;;;43.45;6.00;;;;;;;21.74;46.28;98701.39;1654725;86;21583;-77
2022/04/02 11:44:08;;;;;;;29.60;5.47;;;;;;;21.70;45.92;98682.23;1615130;87;22223;-80
2022/04/02 11:47:04;;;;;;;23.10;5.30;;;;;;;21.77;45.58;98698.78;1655795;86;21124;-80
2022/04/02 11:49:39;;;;;;;24.92;4.83;;;;;;;21.90;45.45;98696.38;1614633;87;21039;-78
2022/04/02 11:52:13;;;;;;;20.30;5.65;;;;;;;22.07;45.25;98691.11;1655758;85;21564;-79
2022/04/02 11:54:55;;;;;;;19.48;4.50;;;;;;;22.18;44.97;98693.41;1654075;86;21390;-79
2022/04/02 11:57:30;;;;;;;47.53;8.83;;;;;;;22.16;44.88;98706.09;1655163;86;21835;-82